Time;durP1;ratioP1;P1;durP2;ratioP2;P2;SDS_P1;SDS_P2;PMS_P1;PMS_P2;Temp;Humidity;BMP_temperature;BMP_pressure;BME280_temperature;BME280_humidity;BME280_pressure;Samples;Min_cycle;Max_cycle;Signal;HPM_P1;HPM_P2
2020/12/15 11:21:17;;;;;;;2.03;1.70;;;11.40;77.90;;;;;;5107727;27;20363;-74
2020/12/15 11:23:43;;;;;;;3.47;1.88;;;11.40;76.00;;;;;;5088782;28;20026;-74
2020/12/15 11:26:09;;;;;;;3.75;2.28;;;11.20;75.70;;;;;;5107589;28;20031;-75
2020/12/15 11:28:35;;;;;;;2.78;1.75;;;11.20;75.50;;;;;;5105782;28;20027;-74
2020/12/15 11:31:02;;;;;;;3.90;1.70;;;11.20;75.80;;;;;;5089325;28;20484;-74
2020/12/15 11:33:27;;;;;;;2.65;1.38;;;11.20;75.90;;;;;;5104664;28;20020;-75
2020/12/15 11:35:53;;;;;;;1.73;1.40;;;10.90;75.20;;;;;;5089051;28;20073;-75
2020/12/15 11:38:19;;;;;;;2.70;1.75;;;10.40;77.80;;;;;;5105435;28;20015;-74
2020/12/15 11:40:46;;;;;;;3.38;2.00;;;10.20;79.70;;;;;;5105379;28;20544;-74
2020/12/15 11:43:12;;;;;;;5.57;1.60;;;10.20;80.20;;;;;;5105970;28;20059;-73
2020/12/15 11:45:37;;;;;;;3.08;1.67;;;10.00;80.80;;;;;;5106596;28;20043;-74
2020/12/15 11:48:03;;;;;;;2.35;1.60;;;10.00;82.20;;;;;;5106133;28;20020;-74
2020/12/15 11:50:30;;;;;;;3.60;1.80;;;9.80;81.90;;;;;;5105085;28;20058;-73
2020/12/15 11:52:56;;;;;;;4.75;2.13;;;9.80;83.00;;;;;;5104552;28;20035;-74
2020/12/15 11:55:22;;;;;;;7.57;1.80;;;9.70;83.40;;;;;;5105409;28;20023;-74
2020/12/15 11:57:56;;;;;;;4.53;2.13;;;9.70;83.70;;;;;;5105640;28;20391;-74
2020/12/15 12:00:21;;;;;;;3.20;2.20;;;9.60;84.90;;;;;;5106768;28;20431;-75
2020/12/15 12:02:47;;;;;;;3.45;2.10;;;9.40;85.70;;;;;;5104898;28;20027;-73
2020/12/15 12:05:17;;;;;;;5.40;2.90;;;9.40;85.90;;;;;;5105322;28;20020;-74
2020/12/15 12:07:43;;;;;;;4.40;1.92;;;9.20;86.20;;;;;;5104956;28;20016;-73
2020/12/15 12:10:10;;;;;;;3.72;2.13;;;8.90;87.00;;;;;;5105893;28;20752;-74
2020/12/15 12:12:36;;;;;;;2.67;2.10;;;8.70;87.90;;;;;;5088217;28;20037;-74
2020/12/15 12:15:02;;;;;;;6.40;1.70;;;8.70;87.80;;;;;;5107038;28;20102;-74
2020/12/15 12:17:28;;;;;;;3.25;2.17;;;8.80;86.80;;;;;;5106473;28;20020;-73
2020/12/15 12:19:54;;;;;;;5.03;2.50;;;8.90;86.10;;;;;;5104510;28;20098;-73
2020/12/15 12:22:20;;;;;;;9.98;3.30;;;8.80;85.00;;;;;;5106454;28;20039;-75
2020/12/15 12:24:45;;;;;;;4.72;2.83;;;9.00;88.00;;;;;;5104385;28;20040;-73
2020/12/15 12:27:11;;;;;;;8.90;2.65;;;9.00;86.10;;;;;;5106587;28;20048;-75
2020/12/15 12:29:37;;;;;;;10.27;3.50;;;9.10;86.00;;;;;;5077614;22;20135;-74
2020/12/15 12:32:04;;;;;;;6.38;3.65;;;9.20;86.80;;;;;;5013530;28;20474;-72
2020/12/15 12:34:29;;;;;;;959.22;121.28;;;9.20;87.50;;;;;;5011312;28;20025;-74
2020/12/15 12:36:55;;;;;;;57.05;6.53;;;9.30;89.90;;;;;;5012246;28;20025;-74
2020/12/15 12:39:21;;;;;;;4.90;2.67;;;9.40;88.00;;;;;;5011122;28;20468;-75
2020/12/15 12:41:52;;;;;;;4.53;2.58;;;9.40;86.20;;;;;;5008552;28;20051;-75
2020/12/15 12:44:19;;;;;;;3.22;2.03;;;9.30;86.20;;;;;;5012279;28;20018;-75
2020/12/15 12:46:51;;;;;;;4.50;1.90;;;9.30;86.30;;;;;;5011866;28;20044;-75
2020/12/15 12:49:16;;;;;;;;;;;9.30;86.20;;;;;;5011949;28;20053;-75
2020/12/15 12:51:45;;;;;;;5.50;2.45;;;9.20;87.10;;;;;;5011131;28;19909;-75
2020/12/15 12:54:11;;;;;;;4.55;2.75;;;9.20;87.10;;;;;;4993848;28;20030;-75
2020/12/15 12:56:41;;;;;;;2.47;2.05;;;9.20;87.00;;;;;;5011146;28;20083;-75
2020/12/15 12:59:07;;;;;;;5.65;3.15;;;9.10;87.10;;;;;;5012316;28;20094;-74
2020/12/15 13:01:32;;;;;;;31.10;7.00;;;9.10;87.40;;;;;;5012932;28;20277;-74
2020/12/15 13:03:58;;;;;;;32.08;11.00;;;8.90;87.30;;;;;;5012364;28;20030;-75
2020/12/15 13:06:24;;;;;;;4.78;2.47;;;9.00;87.60;;;;;;5012665;28;20030;-74
2020/12/15 13:08:49;;;;;;;4.38;2.42;;;8.80;86.70;;;;;;5009646;28;20018;-74
2020/12/15 13:11:15;;;;;;;6.97;2.63;;;8.80;87.70;;;;;;5012140;28;20116;-75
2020/12/15 13:13:41;;;;;;;4.63;2.78;;;8.90;88.90;;;;;;5012055;28;20084;-75
2020/12/15 13:16:07;;;;;;;3.95;2.33;;;8.90;88.50;;;;;;5011800;28;20037;-76
2020/12/15 13:18:32;;;;;;;2.65;2.30;;;9.00;88.50;;;;;;5012002;28;20058;-76
2020/12/15 13:20:58;;;;;;;9.07;3.25;;;9.00;87.90;;;;;;5011422;28;20030;-76
2020/12/15 13:23:24;;;;;;;4.63;2.25;;;9.10;88.20;;;;;;5010716;28;20117;-76
2020/12/15 13:25:50;;;;;;;6.18;2.17;;;9.00;86.40;;;;;;5010359;28;20034;-76
2020/12/15 13:28:16;;;;;;;3.97;2.25;;;8.90;86.60;;;;;;5012095;28;20022;-76
2020/12/15 13:30:42;;;;;;;4.72;2.28;;;8.80;87.20;;;;;;5011519;28;20033;-75
2020/12/15 13:33:08;;;;;;;3.17;2.28;;;8.80;86.60;;;;;;5010364;28;20033;-76
2020/12/15 13:35:34;;;;;;;3.40;2.20;;;8.80;88.20;;;;;;5010573;28;20366;-75
2020/12/15 13:37:59;;;;;;;4.38;1.95;;;8.90;88.80;;;;;;5012180;28;20021;-76
2020/12/15 13:40:25;;;;;;;7.60;4.78;;;8.90;88.30;;;;;;5011348;28;20022;-76
2020/12/15 13:42:51;;;;;;;4.22;2.58;;;9.00;87.90;;;;;;5010821;28;20512;-77
2020/12/15 13:45:16;;;;;;;2.88;1.98;;;9.00;86.90;;;;;;4994011;28;20068;-76
2020/12/15 13:47:42;;;;;;;5.95;2.00;;;8.90;86.70;;;;;;5012376;28;20022;-76
2020/12/15 13:50:08;;;;;;;6.35;3.60;;;8.90;86.50;;;;;;4994162;28;20032;-76
2020/12/15 13:52:34;;;;;;;3.92;3.03;;;8.90;86.70;;;;;;4994443;28;20497;-76
2020/12/15 13:54:59;;;;;;;6.85;3.17;;;8.90;87.50;;;;;;5011662;28;20029;-76
2020/12/15 13:57:25;;;;;;;4.40;2.90;;;8.90;87.00;;;;;;5012077;28;20018;-78
2020/12/15 13:59:51;;;;;;;4.65;2.42;;;8.80;87.70;;;;;;5010547;28;20030;-75
2020/12/15 14:02:17;;;;;;;9.32;3.10;;;8.70;88.30;;;;;;5010462;28;20022;-76
2020/12/15 14:04:43;;;;;;;5.63;4.10;;;8.70;88.00;;;;;;5011838;28;20421;-76
2020/12/15 14:07:09;;;;;;;9.60;4.70;;;8.70;88.80;;;;;;5012516;28;20025;-76
2020/12/15 14:09:35;;;;;;;5.40;4.03;;;8.70;89.30;;;;;;5011114;28;20030;-75
2020/12/15 14:12:01;;;;;;;9.88;4.10;;;8.70;89.80;;;;;;5009399;28;20465;-75
2020/12/15 14:14:27;;;;;;;5.13;3.42;;;8.80;89.40;;;;;;4993004;28;20092;-75
2020/12/15 14:16:54;;;;;;;9.65;3.00;;;8.80;89.20;;;;;;5009163;28;20065;-76
2020/12/15 14:19:20;;;;;;;5.82;3.22;;;8.80;89.20;;;;;;5010710;28;20022;-76
2020/12/15 14:21:47;;;;;;;4.20;2.80;;;8.80;88.90;;;;;;5010759;28;20093;-76
2020/12/15 14:24:17;;;;;;;4.32;3.17;;;8.80;88.70;;;;;;5009835;28;20014;-76
2020/12/15 14:26:44;;;;;;;3.70;2.03;;;8.80;88.00;;;;;;5011049;28;20030;-76
2020/12/15 14:29:10;;;;;;;4.63;2.38;;;8.90;88.00;;;;;;5008956;28;20037;-75
2020/12/15 14:31:37;;;;;;;3.70;2.60;;;8.90;87.70;;;;;;5010563;28;20072;-76
2020/12/15 14:34:04;;;;;;;3.53;2.40;;;9.00;88.70;;;;;;5008794;28;20026;-76
2020/12/15 14:36:30;;;;;;;4.45;3.20;;;9.00;87.30;;;;;;5010263;28;20067;-75
2020/12/15 14:38:56;;;;;;;3.97;2.75;;;8.90;88.40;;;;;;5009128;28;20124;-75
2020/12/15 14:41:22;;;;;;;4.47;3.25;;;8.90;88.60;;;;;;5008574;28;20497;-75
2020/12/15 14:43:48;;;;;;;6.55;4.65;;;8.90;88.20;;;;;;5009475;28;20112;-76
2020/12/15 14:46:14;;;;;;;7.22;5.03;;;8.90;88.10;;;;;;4992170;28;20500;-75
2020/12/15 14:48:40;;;;;;;9.05;6.35;;;8.80;90.10;;;;;;4993327;28;20022;-75
2020/12/15 14:51:06;;;;;;;15.63;7.72;;;8.70;91.90;;;;;;5010130;28;20065;-76
2020/12/15 14:53:34;;;;;;;16.80;10.10;;;8.60;92.60;;;;;;5011049;28;20373;-76
2020/12/15 14:55:59;;;;;;;22.70;11.98;;;8.60;93.40;;;;;;5012481;28;20397;-78
2020/12/15 14:58:25;;;;;;;23.90;11.88;;;8.50;93.80;;;;;;5011868;28;20025;-78
2020/12/15 15:00:51;;;;;;;20.85;11.38;;;8.40;94.70;;;;;;5011883;28;20040;-78
2020/12/15 15:03:17;;;;;;;16.98;10.50;;;8.30;96.00;;;;;;4993621;28;20052;-76
2020/12/15 15:05:43;;;;;;;17.77;11.02;;;8.20;97.20;;;;;;5008717;28;20061;-76
2020/12/15 15:08:09;;;;;;;20.83;12.23;;;8.20;99.40;;;;;;5010307;28;20026;-76
2020/12/15 15:10:35;;;;;;;25.20;12.90;;;8.20;99.90;;;;;;5010788;28;20026;-75
2020/12/15 15:13:01;;;;;;;12.88;8.35;;;8.20;99.90;;;;;;5009975;28;20025;-76
2020/12/15 15:15:27;;;;;;;12.13;7.85;;;8.30;99.90;;;;;;5009339;28;20451;-76
2020/12/15 15:17:52;;;;;;;25.20;11.48;;;8.40;99.90;;;;;;5008868;28;20315;-76
2020/12/15 15:20:18;;;;;;;17.65;11.10;;;8.30;99.90;;;;;;4991842;28;20030;-76
2020/12/15 15:22:44;;;;;;;15.43;9.63;;;8.20;99.90;;;;;;4992746;28;20026;-76
2020/12/15 15:25:10;;;;;;;14.55;9.45;;;8.00;99.90;;;;;;5009158;28;20461;-76
2020/12/15 15:27:36;;;;;;;13.70;7.95;;;7.90;99.90;;;;;;5010131;28;20108;-76
2020/12/15 15:30:04;;;;;;;13.15;8.25;;;8.00;99.90;;;;;;4991776;28;20141;-77
2020/12/15 15:32:29;;;;;;;17.88;9.60;;;8.10;99.90;;;;;;4992311;28;20092;-77
2020/12/15 15:34:56;;;;;;;16.90;9.65;;;8.10;99.90;;;;;;5008852;28;20026;-77
2020/12/15 15:37:22;;;;;;;19.85;9.98;;;8.20;99.90;;;;;;5010157;28;20722;-76
2020/12/15 15:39:48;;;;;;;13.68;8.98;;;8.10;99.90;;;;;;4992088;28;20116;-77
2020/12/15 15:42:14;;;;;;;27.80;18.27;;;8.10;99.90;;;;;;4991852;28;20106;-77
2020/12/15 15:44:41;;;;;;;29.35;17.55;;;8.10;99.90;;;;;;5008293;28;20018;-76
2020/12/15 15:47:06;;;;;;;20.92;13.52;;;7.90;99.90;;;;;;5009027;28;20195;-75
2020/12/15 15:49:32;;;;;;;35.67;16.83;;;7.90;99.90;;;;;;5009589;28;20101;-75
2020/12/15 15:52:00;;;;;;;34.83;16.42;;;7.80;99.90;;;;;;5008337;28;20486;-75
2020/12/15 15:54:25;;;;;;;26.67;13.38;;;7.90;99.90;;;;;;5007839;28;20121;-75
2020/12/15 15:56:51;;;;;;;21.92;13.13;;;7.90;99.90;;;;;;5008473;28;20112;-76
2020/12/15 15:59:18;;;;;;;21.40;11.95;;;8.00;99.90;;;;;;4991349;28;20044;-76
2020/12/15 16:01:43;;;;;;;25.52;11.90;;;7.90;99.90;;;;;;5007996;28;20022;-75
2020/12/15 16:04:09;;;;;;;20.70;11.40;;;7.70;99.90;;;;;;5007675;28;20018;-75
2020/12/15 16:06:35;;;;;;;20.63;13.32;;;7.90;99.90;;;;;;5009751;28;20026;-75
2020/12/15 16:09:03;;;;;;;25.55;13.80;;;7.90;99.90;;;;;;5013155;28;20454;-75
2020/12/15 16:11:28;;;;;;;28.92;14.23;;;8.00;99.90;;;;;;5012770;28;20021;-75
2020/12/15 16:13:54;;;;;;;24.00;13.75;;;8.10;99.90;;;;;;5011768;28;20101;-75
2020/12/15 16:16:20;;;;;;;23.00;13.80;;;8.00;99.90;;;;;;5011127;28;20018;-75
2020/12/15 16:18:47;;;;;;;30.20;16.83;;;8.00;99.90;;;;;;5013339;28;20018;-75
2020/12/15 16:21:13;;;;;;;43.55;23.23;;;7.90;99.90;;;;;;4995097;28;20026;-75
2020/12/15 16:23:39;;;;;;;59.55;27.98;;;7.90;99.90;;;;;;5012021;28;20029;-75
2020/12/15 16:26:06;;;;;;;63.97;30.15;;;7.90;99.90;;;;;;5011660;28;20022;-75
2020/12/15 16:28:32;;;;;;;29.55;16.90;;;7.80;99.90;;;;;;5011696;28;20022;-75
2020/12/15 16:31:03;;;;;;;18.98;12.55;;;7.70;99.90;;;;;;5012881;28;20057;-75
2020/12/15 16:33:32;;;;;;;20.45;11.43;;;7.70;99.90;;;;;;5011406;28;20030;-75
2020/12/15 16:35:59;;;;;;;15.68;11.10;;;7.70;99.90;;;;;;5011555;28;20076;-75
2020/12/15 16:38:25;;;;;;;19.42;11.25;;;7.70;99.90;;;;;;5011183;28;20293;-75
2020/12/15 16:40:58;;;;;;;21.10;11.85;;;7.60;99.90;;;;;;5016588;28;20029;-75
2020/12/15 16:43:24;;;;;;;18.17;10.60;;;7.60;99.90;;;;;;5008707;28;20030;-75
2020/12/15 16:45:50;;;;;;;16.80;9.18;;;7.40;99.90;;;;;;5010320;28;20125;-75
2020/12/15 16:48:18;;;;;;;15.68;9.75;;;7.30;99.90;;;;;;5007503;28;20165;-75
2020/12/15 16:50:44;;;;;;;20.48;10.73;;;7.40;99.90;;;;;;5005844;28;20495;-75
2020/12/15 16:53:10;;;;;;;18.92;11.75;;;7.30;99.90;;;;;;5010777;28;20470;-75
2020/12/15 16:55:37;;;;;;;17.58;11.65;;;7.20;99.90;;;;;;5010168;28;20033;-75
2020/12/15 16:58:04;;;;;;;18.10;13.57;;;7.20;99.90;;;;;;5012224;28;20075;-75
2020/12/15 17:00:31;;;;;;;20.77;12.95;;;7.20;99.90;;;;;;5011618;28;20048;-75
2020/12/15 17:02:56;;;;;;;16.52;10.98;;;7.40;99.90;;;;;;5013067;28;20022;-75
2020/12/15 17:05:22;;;;;;;16.95;10.90;;;7.30;99.90;;;;;;5012918;28;20037;-75
2020/12/15 17:07:49;;;;;;;16.65;10.68;;;7.30;99.90;;;;;;5011266;28;20022;-75
2020/12/15 17:10:15;;;;;;;24.05;13.85;;;7.30;99.90;;;;;;5012791;28;20101;-74
2020/12/15 17:12:40;;;;;;;27.58;16.48;;;7.30;99.90;;;;;;5012233;28;20105;-75
2020/12/15 17:15:06;;;;;;;28.10;14.75;;;7.30;99.90;;;;;;5012129;28;20042;-77
2020/12/15 17:17:32;;;;;;;23.92;15.05;;;7.10;99.90;;;;;;5012735;28;20056;-75
2020/12/15 17:19:58;;;;;;;26.13;15.20;;;7.00;99.90;;;;;;5010963;28;20105;-75
2020/12/15 17:22:25;;;;;;;20.73;13.35;;;7.10;99.90;;;;;;5012263;28;20392;-75
2020/12/15 17:24:52;;;;;;;19.05;12.25;;;7.10;99.90;;;;;;5010473;28;20096;-74
2020/12/15 17:27:18;;;;;;;25.13;13.25;;;7.20;99.90;;;;;;5010630;28;20029;-74
2020/12/15 17:29:43;;;;;;;28.55;15.95;;;7.20;99.90;;;;;;4993793;28;20046;-74
2020/12/15 17:32:09;;;;;;;21.02;10.98;;;7.20;99.90;;;;;;5009981;28;20069;-74
2020/12/15 17:34:35;;;;;;;18.25;10.57;;;7.20;99.90;;;;;;5009985;28;20041;-75
2020/12/15 17:37:01;;;;;;;17.67;8.50;;;7.20;99.90;;;;;;5010505;28;20026;-75
2020/12/15 17:39:26;;;;;;;16.00;9.93;;;7.20;99.90;;;;;;5009092;28;20213;-75
2020/12/15 17:41:53;;;;;;;23.13;11.43;;;7.20;99.90;;;;;;5011505;28;20025;-75
2020/12/15 17:44:19;;;;;;;22.00;12.90;;;7.20;99.90;;;;;;5011693;28;20026;-75
2020/12/15 17:46:45;;;;;;;26.67;16.90;;;7.10;99.90;;;;;;5011200;28;20101;-75
2020/12/15 17:49:12;;;;;;;26.42;15.23;;;7.00;99.90;;;;;;5011469;28;20133;-75
2020/12/15 17:51:38;;;;;;;19.27;13.00;;;7.00;99.90;;;;;;5009464;28;20022;-75
2020/12/15 17:54:03;;;;;;;14.55;9.95;;;7.10;99.90;;;;;;5011408;28;20029;-75
2020/12/15 17:56:29;;;;;;;12.18;8.60;;;7.20;99.90;;;;;;5011093;28;20030;-75
2020/12/15 17:58:55;;;;;;;13.40;8.68;;;6.90;99.90;;;;;;5011422;28;21375;-75
2020/12/15 18:01:20;;;;;;;16.50;8.35;;;6.80;99.90;;;;;;5011364;28;20033;-75
2020/12/15 18:03:47;;;;;;;13.85;8.00;;;6.70;99.90;;;;;;5010496;28;20037;-74
2020/12/15 18:06:19;;;;;;;13.60;8.40;;;6.70;99.90;;;;;;5010854;28;20018;-74
2020/12/15 18:08:46;;;;;;;19.30;10.50;;;6.80;99.90;;;;;;5010793;28;20453;-74
2020/12/15 18:11:18;;;;;;;22.75;11.20;;;6.90;99.90;;;;;;5011275;28;20034;-75
2020/12/15 18:13:44;;;;;;;35.00;19.38;;;6.90;99.90;;;;;;5009291;28;20052;-75
2020/12/15 18:16:10;;;;;;;42.17;19.23;;;7.00;99.90;;;;;;5008995;28;20117;-74
2020/12/15 18:18:36;;;;;;;41.67;20.92;;;7.00;99.90;;;;;;5010900;28;20105;-75
2020/12/15 18:21:02;;;;;;;27.08;16.23;;;7.00;99.90;;;;;;5009219;28;20064;-75
2020/12/15 18:23:28;;;;;;;18.20;8.68;;;7.00;99.90;;;;;;5011214;28;20022;-74
2020/12/15 18:25:53;;;;;;;8.43;5.10;;;7.10;99.90;;;;;;5008974;28;20026;-74
2020/12/15 18:28:19;;;;;;;7.22;4.95;;;7.00;99.90;;;;;;4993194;28;20028;-75
2020/12/15 18:30:45;;;;;;;12.60;7.88;;;7.00;99.90;;;;;;5047438;23;20510;-74
2020/12/15 18:33:11;;;;;;;11.75;6.47;;;7.00;99.90;;;;;;5050093;28;20025;-73
2020/12/15 18:35:38;;;;;;;13.48;6.50;;;7.00;99.90;;;;;;5050040;28;20021;-75
2020/12/15 18:38:04;;;;;;;9.57;6.05;;;6.90;99.90;;;;;;5049810;28;20013;-75
2020/12/15 18:40:31;;;;;;;11.38;6.45;;;6.80;99.90;;;;;;5050141;28;20059;-75
2020/12/15 18:42:57;;;;;;;7.78;5.70;;;6.80;99.90;;;;;;5048557;28;20051;-75
2020/12/15 18:45:23;;;;;;;9.70;5.68;;;7.00;99.90;;;;;;5049762;28;20063;-75
2020/12/15 18:47:49;;;;;;;7.30;4.93;;;7.10;99.90;;;;;;5048381;28;20053;-75
2020/12/15 18:50:14;;;;;;;12.25;5.43;;;7.10;99.90;;;;;;5049640;28;20029;-75
2020/12/15 18:52:40;;;;;;;8.50;4.93;;;7.10;99.90;;;;;;5050664;28;20029;-75
2020/12/15 18:55:06;;;;;;;7.60;5.00;;;7.00;99.90;;;;;;5050737;28;20021;-75
2020/12/15 18:57:32;;;;;;;10.82;5.60;;;7.00;99.90;;;;;;5049343;28;20029;-75
2020/12/15 18:59:58;;;;;;;13.77;9.05;;;7.00;99.90;;;;;;5048780;28;20017;-75
2020/12/15 19:02:24;;;;;;;15.57;9.23;;;6.90;99.90;;;;;;5049584;28;20469;-75
2020/12/15 19:04:50;;;;;;;15.27;9.55;;;6.80;99.90;;;;;;5051268;28;20456;-75
2020/12/15 19:07:16;;;;;;;17.98;9.48;;;6.90;99.90;;;;;;5051333;28;20434;-75
2020/12/15 19:09:42;;;;;;;12.02;7.68;;;6.90;99.90;;;;;;5051285;28;20084;-75
2020/12/15 19:12:09;;;;;;;16.92;11.43;;;6.90;99.90;;;;;;5049447;28;20100;-75
2020/12/15 19:14:35;;;;;;;16.98;11.82;;;6.90;99.90;;;;;;5049308;28;20029;-75
2020/12/15 19:17:00;;;;;;;12.18;8.65;;;6.90;99.90;;;;;;5049001;28;20103;-75
2020/12/15 19:19:26;;;;;;;7.38;6.30;;;7.00;99.90;;;;;;5031337;28;20036;-75
2020/12/15 19:21:57;;;;;;;9.00;5.65;;;7.10;99.90;;;;;;5048785;28;20032;-75
2020/12/15 19:24:22;;;;;;;6.05;4.13;;;7.20;99.90;;;;;;5049660;28;20025;-75
2020/12/15 19:26:49;;;;;;;10.32;4.93;;;7.40;99.90;;;;;;5050009;28;20021;-74
2020/12/15 19:29:15;;;;;;;7.07;4.20;;;7.40;99.90;;;;;;5049253;28;20100;-75
2020/12/15 19:31:41;;;;;;;7.60;4.63;;;7.30;99.90;;;;;;5048968;28;20032;-75
2020/12/15 19:34:07;;;;;;;7.80;4.22;;;7.40;99.90;;;;;;5050389;28;20388;-74
2020/12/15 19:36:37;;;;;;;6.57;4.15;;;7.40;99.90;;;;;;5049069;28;20100;-75
2020/12/15 19:39:05;;;;;;;7.47;4.50;;;7.50;99.90;;;;;;5048887;28;20391;-75
2020/12/15 19:41:31;;;;;;;5.70;4.28;;;7.60;99.90;;;;;;5050417;28;20047;-76
2020/12/15 19:43:57;;;;;;;8.30;5.10;;;7.60;99.90;;;;;;5036357;28;20451;-75
2020/12/15 19:46:24;;;;;;;7.00;5.25;;;7.60;99.90;;;;;;5054574;28;20472;-75
2020/12/15 19:48:50;;;;;;;9.73;5.45;;;7.70;99.90;;;;;;5052970;28;20032;-74
2020/12/15 19:51:16;;;;;;;7.68;5.43;;;7.40;99.90;;;;;;5052921;28;20099;-75
2020/12/15 19:53:42;;;;;;;7.63;5.13;;;7.20;99.90;;;;;;5052935;28;20024;-75
2020/12/15 19:56:08;;;;;;;7.88;5.18;;;7.30;99.90;;;;;;5054124;28;20032;-75
2020/12/15 19:58:34;;;;;;;10.13;6.22;;;7.40;99.90;;;;;;5053928;28;20051;-75
2020/12/15 20:01:00;;;;;;;16.40;8.55;;;7.50;99.90;;;;;;5054050;28;20029;-75
2020/12/15 20:03:27;;;;;;;18.92;10.15;;;7.60;99.90;;;;;;5054013;28;20025;-74
2020/12/15 20:05:53;;;;;;;13.65;8.05;;;7.60;99.90;;;;;;5052612;28;20025;-75
2020/12/15 20:08:19;;;;;;;12.43;7.13;;;7.50;99.90;;;;;;5052794;28;20488;-74
2020/12/15 20:10:45;;;;;;;9.65;6.30;;;7.40;99.90;;;;;;5053850;28;20108;-75
2020/12/15 20:13:11;;;;;;;10.40;6.70;;;7.10;99.90;;;;;;5054101;28;20423;-75
2020/12/15 20:15:37;;;;;;;11.07;7.25;;;7.10;99.90;;;;;;5053780;28;20032;-75
2020/12/15 20:18:03;;;;;;;12.52;8.10;;;7.20;99.90;;;;;;5053893;28;20473;-75
2020/12/15 20:20:28;;;;;;;9.50;7.22;;;7.20;99.90;;;;;;5052254;28;20036;-74
2020/12/15 20:22:54;;;;;;;11.35;7.40;;;7.20;99.90;;;;;;5035883;28;20078;-75
2020/12/15 20:25:20;;;;;;;12.73;7.75;;;7.10;99.90;;;;;;5052338;28;20070;-74
2020/12/15 20:27:45;;;;;;;11.00;7.80;;;7.20;99.90;;;;;;5052724;28;20104;-75
2020/12/15 20:30:11;;;;;;;17.60;10.50;;;7.30;99.90;;;;;;5053264;28;20116;-75
2020/12/15 20:32:37;;;;;;;16.35;9.80;;;7.30;99.90;;;;;;5053622;28;20028;-75
2020/12/15 20:35:05;;;;;;;13.43;8.32;;;7.30;99.90;;;;;;5053592;28;20134;-74
2020/12/15 20:37:30;;;;;;;8.82;6.07;;;7.30;99.90;;;;;;5053387;28;20021;-75
2020/12/15 20:39:56;;;;;;;8.98;5.20;;;7.20;99.90;;;;;;5051939;28;20025;-74
2020/12/15 20:42:22;;;;;;;6.28;4.53;;;7.10;99.90;;;;;;5051996;28;20104;-74
2020/12/15 20:44:49;;;;;;;8.23;4.85;;;7.00;99.90;;;;;;5034827;28;20021;-75
2020/12/15 20:47:15;;;;;;;5.28;4.20;;;7.00;99.90;;;;;;5051955;28;20029;-75
2020/12/15 20:49:40;;;;;;;9.93;5.25;;;6.90;99.90;;;;;;5052001;28;20028;-74
2020/12/15 20:52:06;;;;;;;9.15;4.82;;;6.90;99.90;;;;;;5034842;28;20523;-75
2020/12/15 20:54:32;;;;;;;7.53;4.65;;;7.00;99.90;;;;;;5053199;28;20048;-75
2020/12/15 20:56:58;;;;;;;8.18;4.28;;;7.00;99.90;;;;;;5035149;28;20523;-75
2020/12/15 20:59:24;;;;;;;10.88;6.18;;;6.90;99.90;;;;;;5053033;28;20075;-75
2020/12/15 21:01:54;;;;;;;6.65;4.05;;;6.90;99.90;;;;;;5051935;28;20021;-75
2020/12/15 21:04:20;;;;;;;5.95;3.40;;;7.00;99.90;;;;;;5053309;28;20021;-75
2020/12/15 21:06:48;;;;;;;5.95;3.97;;;7.00;99.90;;;;;;5052140;28;20107;-74
2020/12/15 21:09:15;;;;;;;6.40;4.45;;;7.10;99.90;;;;;;5053741;28;20021;-75
2020/12/15 21:11:41;;;;;;;6.60;4.00;;;7.20;99.90;;;;;;5052301;28;20437;-75
2020/12/15 21:14:06;;;;;;;6.63;3.88;;;7.30;99.90;;;;;;5052706;28;20064;-75
2020/12/15 21:16:32;;;;;;;5.63;3.08;;;7.30;99.90;;;;;;5052997;28;20021;-75
2020/12/15 21:18:58;;;;;;;5.20;3.65;;;7.30;99.90;;;;;;5052608;28;20029;-75
2020/12/15 21:21:24;;;;;;;8.35;4.25;;;7.30;99.90;;;;;;5052659;28;20103;-75
2020/12/15 21:23:50;;;;;;;7.38;3.78;;;7.40;99.90;;;;;;5051080;28;20120;-75
2020/12/15 21:26:16;;;;;;;5.57;3.65;;;7.40;99.90;;;;;;5051291;28;20029;-75
2020/12/15 21:28:42;;;;;;;5.55;3.60;;;7.30;99.90;;;;;;5052376;28;20082;-75
2020/12/15 21:31:09;;;;;;;5.40;3.55;;;7.40;99.90;;;;;;5052551;28;20546;-75
2020/12/15 21:33:35;;;;;;;6.50;3.38;;;7.40;99.90;;;;;;5052882;28;20071;-76
2020/12/15 21:36:06;;;;;;;5.55;3.33;;;7.50;99.90;;;;;;5051214;28;20511;-75
2020/12/15 21:38:32;;;;;;;6.35;3.45;;;7.50;99.90;;;;;;5050819;28;20032;-75
2020/12/15 21:40:58;;;;;;;4.47;3.00;;;7.50;99.90;;;;;;5052392;28;20025;-75
2020/12/15 21:43:24;;;;;;;7.43;3.78;;;7.60;99.90;;;;;;5052138;28;20503;-74
2020/12/15 21:45:49;;;;;;;7.72;4.00;;;7.40;99.90;;;;;;5051052;28;20025;-74
2020/12/15 21:48:15;;;;;;;6.63;3.33;;;7.40;99.90;;;;;;5052227;28;20472;-75
2020/12/15 21:50:41;;;;;;;3.25;2.78;;;7.40;99.90;;;;;;5052422;28;20029;-75
2020/12/15 21:53:09;;;;;;;4.28;3.20;;;7.40;99.90;;;;;;5052107;28;20043;-75
2020/12/15 21:55:36;;;;;;;7.00;3.40;;;7.30;99.90;;;;;;5052000;28;20017;-74
2020/12/15 21:58:01;;;;;;;3.75;3.08;;;7.30;99.90;;;;;;5050867;28;20495;-75
2020/12/15 22:00:27;;;;;;;4.55;2.65;;;7.30;99.90;;;;;;5051629;28;20091;-74
2020/12/15 22:02:53;;;;;;;4.43;3.17;;;7.20;99.90;;;;;;5052051;28;20023;-75
2020/12/15 22:05:18;;;;;;;5.65;3.60;;;7.30;99.90;;;;;;5050862;28;20025;-75
2020/12/15 22:07:44;;;;;;;4.88;3.28;;;7.20;99.90;;;;;;5051934;28;20435;-75
2020/12/15 22:10:12;;;;;;;4.30;3.13;;;7.10;99.90;;;;;;5051859;28;20063;-75
2020/12/15 22:12:38;;;;;;;9.05;3.33;;;7.20;99.90;;;;;;5050606;28;20033;-75
2020/12/15 22:15:05;;;;;;;6.13;3.00;;;7.10;99.90;;;;;;5033706;28;20025;-75
2020/12/15 22:17:31;;;;;;;4.82;3.35;;;7.10;99.90;;;;;;5050616;28;20017;-75
2020/12/15 22:19:57;;;;;;;4.80;3.13;;;7.20;99.90;;;;;;5050587;28;20108;-75
2020/12/15 22:22:24;;;;;;;4.40;3.47;;;7.20;99.90;;;;;;5050353;28;20032;-75
2020/12/15 22:24:50;;;;;;;5.93;4.40;;;7.20;99.90;;;;;;5049976;28;20025;-75
2020/12/15 22:27:22;;;;;;;4.03;3.17;;;7.30;99.90;;;;;;5050567;28;20075;-75
2020/12/15 22:29:47;;;;;;;4.03;2.60;;;7.20;99.90;;;;;;5033320;28;20112;-75
2020/12/15 22:32:13;;;;;;;5.72;3.45;;;7.10;99.90;;;;;;5051881;28;20089;-75
2020/12/15 22:34:39;;;;;;;7.53;4.18;;;7.10;99.90;;;;;;5049854;28;20029;-75
2020/12/15 22:37:04;;;;;;;5.32;3.70;;;7.00;99.90;;;;;;5050230;28;20050;-75
2020/12/15 22:39:30;;;;;;;4.50;3.33;;;7.20;99.90;;;;;;5051328;28;20078;-75
2020/12/15 22:41:56;;;;;;;6.35;3.47;;;7.20;99.90;;;;;;5051298;28;20036;-75
2020/12/15 22:44:22;;;;;;;4.10;2.97;;;7.20;99.90;;;;;;5051355;28;20028;-74
2020/12/15 22:46:52;;;;;;;5.18;3.20;;;7.10;99.90;;;;;;5051076;28;20025;-74
2020/12/15 22:49:17;;;;;;;3.53;2.38;;;7.20;99.90;;;;;;5051575;28;20029;-75
2020/12/15 22:51:43;;;;;;;5.15;2.85;;;7.30;99.90;;;;;;5051897;28;20071;-75
2020/12/15 22:54:09;;;;;;;4.47;2.85;;;7.30;99.90;;;;;;5052084;28;20017;-75
2020/12/15 22:56:34;;;;;;;3.70;2.55;;;7.10;99.90;;;;;;5051276;28;20025;-74
2020/12/15 22:59:00;;;;;;;4.28;2.65;;;7.10;99.90;;;;;;5050100;28;20461;-75
2020/12/15 23:01:26;;;;;;;4.75;3.00;;;7.20;99.90;;;;;;5050917;28;20033;-75
2020/12/15 23:03:51;;;;;;;5.78;2.88;;;7.30;99.90;;;;;;5049970;28;20504;-75
2020/12/15 23:06:17;;;;;;;4.80;2.95;;;7.30;99.90;;;;;;5050643;28;20032;-75
2020/12/15 23:08:43;;;;;;;4.22;2.65;;;7.30;99.90;;;;;;5051064;28;20520;-75
2020/12/15 23:11:08;;;;;;;5.60;3.63;;;7.30;99.90;;;;;;5050725;28;20033;-75
2020/12/15 23:13:34;;;;;;;4.25;2.67;;;7.30;99.90;;;;;;5049748;28;20396;-75
2020/12/15 23:16:00;;;;;;;4.82;2.78;;;7.20;99.90;;;;;;5050529;28;20021;-75
2020/12/15 23:18:25;;;;;;;5.00;2.80;;;7.20;99.90;;;;;;5049584;28;20381;-75
2020/12/15 23:20:51;;;;;;;3.97;3.15;;;7.20;99.90;;;;;;5050644;28;20028;-75
2020/12/15 23:23:17;;;;;;;4.95;3.30;;;7.30;99.90;;;;;;5049439;28;20028;-75
2020/12/15 23:25:43;;;;;;;3.75;2.92;;;7.50;99.90;;;;;;5050821;28;20017;-75
2020/12/15 23:28:08;;;;;;;5.68;3.30;;;7.50;99.90;;;;;;5050634;28;20427;-75
2020/12/15 23:30:34;;;;;;;5.10;3.47;;;7.40;99.90;;;;;;5050611;28;20072;-75
2020/12/15 23:33:00;;;;;;;4.55;3.25;;;7.30;99.90;;;;;;5049006;28;20480;-75
2020/12/15 23:35:25;;;;;;;5.80;3.47;;;7.40;99.90;;;;;;5049026;28;20037;-75
2020/12/15 23:37:51;;;;;;;6.68;3.60;;;7.40;99.90;;;;;;5049336;28;20025;-75
2020/12/15 23:40:17;;;;;;;7.13;3.78;;;7.50;99.90;;;;;;5049177;28;20024;-75
2020/12/15 23:42:44;;;;;;;8.18;4.32;;;7.50;99.90;;;;;;5049312;28;20104;-75
2020/12/15 23:45:11;;;;;;;8.75;5.32;;;7.40;99.90;;;;;;5049036;28;20021;-75
2020/12/15 23:47:37;;;;;;;31.98;16.48;;;7.30;99.90;;;;;;5048876;28;20025;-75
2020/12/15 23:50:09;;;;;;;14.73;8.57;;;7.40;99.90;;;;;;5050413;28;20104;-75
2020/12/15 23:52:35;;;;;;;11.55;5.85;;;7.40;99.90;;;;;;5049365;28;20112;-74
2020/12/15 23:55:00;;;;;;;9.55;6.07;;;7.40;99.90;;;;;;5050530;28;20108;-75
2020/12/15 23:57:26;;;;;;;13.40;6.43;;;7.50;99.90;;;;;;5050223;28;20045;-75
2020/12/15 23:59:52;;;;;;;11.93;5.70;;;7.40;99.90;;;;;;5050253;28;20025;-75
